Time;durP1;ratioP1;P1;durP2;ratioP2;P2;SDS_P1;SDS_P2;PMS_P1;PMS_P2;Temp;Humidity;BMP_temperature;BMP_pressure;BME280_temperature;BME280_humidity;BME280_pressure;Samples;Min_cycle;Max_cycle;Signal;HPM_P1;HPM_P2
2024/03/11 00:02:16;;;;;;;8.38;7.45;;;5.20;1.00;;;;;;5101672;27;20514;-80
2024/03/11 00:05:06;;;;;;;9.68;7.72;;;5.10;1.00;;;;;;5102798;27;20063;-80
2024/03/11 00:07:55;;;;;;;8.32;7.22;;;5.10;1.00;;;;;;5102338;28;20051;-79
2024/03/11 00:10:46;;;;;;;9.48;8.05;;;5.10;1.00;;;;;;5091086;28;20048;-80
2024/03/11 00:13:33;;;;;;;9.07;7.82;;;5.10;1.00;;;;;;5077207;28;20039;-80
2024/03/11 00:16:21;;;;;;;10.23;7.80;;;5.10;1.00;;;;;;5087296;28;20303;-81
2024/03/11 00:19:08;;;;;;;12.50;8.45;;;5.10;1.00;;;;;;5108547;27;20043;-78
2024/03/11 00:21:57;;;;;;;9.70;7.95;;;5.00;1.00;;;;;;5089996;28;20020;-80
2024/03/11 00:24:45;;;;;;;10.65;8.43;;;5.00;1.00;;;;;;5113811;28;21564;-80
2024/03/11 00:27:36;;;;;;;12.02;8.43;;;5.00;12.80;;;;;;5102289;28;20437;-81
2024/03/11 00:30:24;;;;;;;10.65;8.23;;;5.00;5.50;;;;;;5113700;27;20074;-81
2024/03/11 00:33:13;;;;;;;10.05;8.43;;;5.00;1.00;;;;;;5110969;28;20134;-81
2024/03/11 00:36:02;;;;;;;9.90;8.35;;;5.10;1.00;;;;;;5106154;28;20044;-80
2024/03/11 00:38:53;;;;;;;9.45;8.05;;;5.00;1.00;;;;;;5096856;27;20054;-80
2024/03/11 00:41:40;;;;;;;8.35;7.50;;;5.10;1.00;;;;;;5115365;27;20233;-77
2024/03/11 00:44:28;;;;;;;8.90;7.60;;;5.00;99.90;;;;;;5120929;28;20058;-78
2024/03/11 00:47:18;;;;;;;8.80;6.95;;;5.00;99.90;;;;;;5114680;28;20590;-80
2024/03/11 00:50:07;;;;;;;9.63;7.43;;;5.00;99.90;;;;;;5083874;28;20140;-83
2024/03/11 00:52:57;;;;;;;7.15;6.45;;;5.00;99.90;;;;;;5085953;28;20073;-80
2024/03/11 00:55:46;;;;;;;8.25;6.30;;;5.00;99.90;;;;;;5103663;28;20756;-79
2024/03/11 00:58:35;;;;;;;7.30;6.03;;;5.00;99.90;;;;;;5104861;28;20043;-80
2024/03/11 01:01:22;;;;;;;6.95;5.93;;;4.90;99.90;;;;;;5097437;28;20124;-79
2024/03/11 01:04:11;;;;;;;8.55;6.70;;;4.90;1.10;;;;;;5123476;27;20027;-77
2024/03/11 01:06:59;;;;;;;6.78;6.00;;;4.90;1.00;;;;;;5108231;28;20103;-77
2024/03/11 01:10:05;;;;;;;7.32;6.43;;;4.90;1.00;;;;;;5128689;28;20048;-78
2024/03/11 01:12:53;;;;;;;6.75;6.03;;;4.80;99.90;;;;;;5117759;28;20599;-79
2024/03/11 01:15:40;;;;;;;6.43;5.80;;;4.80;99.90;;;;;;5123431;28;20406;-77
2024/03/11 01:18:28;;;;;;;5.85;5.25;;;4.80;99.90;;;;;;5099537;28;20098;-79
2024/03/11 01:21:20;;;;;;;6.25;5.35;;;4.80;99.90;;;;;;5113564;28;20127;-81
2024/03/11 01:24:08;;;;;;;9.55;5.80;;;4.70;99.90;;;;;;5100020;28;20059;-81
2024/03/11 01:27:05;;;;;;;6.93;5.25;;;4.70;84.20;;;;;;5113848;27;20048;-80
2024/03/11 01:29:53;;;;;;;5.90;5.30;;;4.70;9.90;;;;;;5103555;28;20055;-81
2024/03/11 01:32:44;;;;;;;5.72;5.15;;;4.70;1.00;;;;;;5093550;28;20048;-82
2024/03/11 01:35:34;;;;;;;6.57;4.95;;;4.70;1.00;;;;;;5104305;27;20126;-80
2024/03/11 01:38:22;;;;;;;6.10;4.75;;;4.60;1.00;;;;;;5107298;27;20040;-80
2024/03/11 01:41:11;;;;;;;5.57;4.95;;;4.60;99.90;;;;;;5104863;27;20044;-78
2024/03/11 01:44:00;;;;;;;5.85;5.00;;;4.50;99.90;;;;;;5101248;27;20101;-80
2024/03/11 01:46:52;;;;;;;5.45;4.25;;;4.50;99.90;;;;;;5101304;28;20052;-80
2024/03/11 01:49:42;;;;;;;5.27;4.77;;;4.50;99.90;;;;;;5093332;28;20135;-78
2024/03/11 01:52:34;;;;;;;5.32;4.57;;;4.50;99.90;;;;;;5088652;28;20527;-79
2024/03/11 01:55:24;;;;;;;4.57;4.10;;;4.40;99.90;;;;;;5104947;27;20468;-78
2024/03/11 01:58:13;;;;;;;5.05;4.55;;;4.40;99.90;;;;;;5106404;28;20043;-78
2024/03/11 02:01:01;;;;;;;6.20;4.47;;;4.30;99.90;;;;;;5121306;27;20043;-78
2024/03/11 02:03:50;;;;;;;6.07;4.72;;;4.30;99.90;;;;;;5095104;28;20047;-77
2024/03/11 02:06:39;;;;;;;5.30;4.70;;;4.30;1.00;;;;;;5118722;27;20070;-81
2024/03/11 02:09:27;;;;;;;6.45;4.45;;;4.20;1.00;;;;;;5098776;28;20138;-81
2024/03/11 02:12:17;;;;;;;7.15;4.95;;;4.20;1.00;;;;;;5111669;27;20048;-80
2024/03/11 02:15:10;;;;;;;6.40;5.20;;;4.20;76.30;;;;;;5113017;28;20162;-81
2024/03/11 02:18:00;;;;;;;4.82;4.43;;;4.20;99.90;;;;;;5100065;27;20056;-82
2024/03/11 02:20:49;;;;;;;5.20;4.57;;;4.20;97.10;;;;;;5106694;27;20048;-79
2024/03/11 02:23:38;;;;;;;6.95;4.68;;;4.20;99.90;;;;;;5099652;28;20603;-80
2024/03/11 02:26:27;;;;;;;5.90;5.07;;;4.10;99.90;;;;;;5100989;28;20050;-80
2024/03/11 02:29:18;;;;;;;5.75;4.95;;;4.10;99.90;;;;;;5089855;27;20070;-79
2024/03/11 02:32:20;;;;;;;5.03;4.47;;;4.00;99.90;;;;;;5106737;27;20043;-82
2024/03/11 02:35:11;;;;;;;5.13;4.20;;;4.10;1.00;;;;;;5100786;28;20040;-79
2024/03/11 02:38:02;;;;;;;5.85;5.00;;;4.10;1.00;;;;;;5103972;28;20048;-80
2024/03/11 02:40:51;;;;;;;7.18;4.80;;;4.00;26.90;;;;;;5073650;28;20044;-80
2024/03/11 02:43:39;;;;;;;6.05;4.72;;;4.00;70.80;;;;;;5096668;28;20454;-79
2024/03/11 02:46:30;;;;;;;5.10;4.50;;;3.90;99.90;;;;;;5100863;28;20051;-77
2024/03/11 02:49:18;;;;;;;6.63;5.50;;;3.90;99.90;;;;;;5080383;28;20867;-80
2024/03/11 02:52:07;;;;;;;7.55;4.65;;;3.90;99.90;;;;;;5106364;27;20055;-78
2024/03/11 02:54:54;;;;;;;6.00;4.70;;;3.80;99.90;;;;;;5103561;28;20040;-80
2024/03/11 02:57:48;;;;;;;7.07;4.40;;;3.80;99.90;;;;;;5095445;28;20476;-81
2024/03/11 03:00:36;;;;;;;7.43;4.78;;;3.80;1.00;;;;;;5097746;28;20484;-78
2024/03/11 03:03:24;;;;;;;12.77;4.57;;;3.80;1.00;;;;;;5098336;27;20078;-81
2024/03/11 03:06:11;;;;;;;8.07;5.00;;;3.80;1.00;;;;;;5109001;27;20087;-80
2024/03/11 03:09:00;;;;;;;5.30;4.80;;;3.70;1.00;;;;;;5110361;27;20488;-82
2024/03/11 03:11:48;;;;;;;5.10;3.88;;;3.80;1.00;;;;;;5102122;27;20132;-82
2024/03/11 03:14:37;;;;;;;5.82;4.43;;;3.80;1.00;;;;;;5085385;28;20046;-80
2024/03/11 03:17:25;;;;;;;5.00;4.50;;;3.80;1.00;;;;;;5102052;28;20092;-79
2024/03/11 03:20:12;;;;;;;7.03;4.72;;;3.70;1.00;;;;;;5103643;27;20634;-80
2024/03/11 03:23:01;;;;;;;5.88;4.97;;;3.70;1.00;;;;;;5094879;27;20055;-79
2024/03/11 03:25:49;;;;;;;6.30;5.00;;;3.60;1.00;;;;;;5096333;27;20040;-81
2024/03/11 03:28:37;;;;;;;6.18;5.45;;;3.60;1.00;;;;;;5082754;27;20040;-81
2024/03/11 03:31:27;;;;;;;6.65;5.32;;;3.60;1.00;;;;;;5094626;28;20131;-81
2024/03/11 03:34:14;;;;;;;6.78;5.30;;;3.60;1.00;;;;;;5099037;28;20465;-77
2024/03/11 03:37:02;;;;;;;6.07;5.07;;;3.60;1.00;;;;;;5103379;27;20048;-79
2024/03/11 03:39:50;;;;;;;7.55;5.88;;;3.60;14.40;;;;;;5099036;27;20035;-82
2024/03/11 03:42:38;;;;;;;9.68;5.35;;;3.50;20.30;;;;;;5099264;28;20054;-81
2024/03/11 03:45:27;;;;;;;10.93;5.88;;;3.50;29.80;;;;;;5082337;28;20044;-79
2024/03/11 03:48:14;;;;;;;9.93;5.93;;;3.40;14.80;;;;;;5104613;28;20058;-78
2024/03/11 03:51:03;;;;;;;8.95;6.03;;;3.30;88.30;;;;;;5076058;28;20091;-80
2024/03/11 03:53:51;;;;;;;8.98;5.68;;;3.30;99.90;;;;;;5085017;28;20062;-79
2024/03/11 03:56:39;;;;;;;8.95;6.20;;;3.30;99.90;;;;;;5077022;28;20101;-79
2024/03/11 03:59:28;;;;;;;7.90;6.60;;;3.30;99.90;;;;;;5100432;28;20420;-81
2024/03/11 04:02:15;;;;;;;8.07;6.43;;;3.30;99.90;;;;;;5096531;28;20458;-80
2024/03/11 04:05:04;;;;;;;12.23;7.25;;;3.30;99.90;;;;;;5086126;28;20050;-79
2024/03/11 04:07:52;;;;;;;13.10;7.25;;;3.30;99.90;;;;;;5104280;27;20048;-79
2024/03/11 04:10:41;;;;;;;9.73;6.72;;;3.30;99.90;;;;;;5102871;27;20051;-80
2024/03/11 04:13:29;;;;;;;8.50;7.20;;;3.30;99.90;;;;;;5103379;28;20048;-81
2024/03/11 04:16:16;;;;;;;8.98;7.10;;;3.30;99.90;;;;;;5106069;28;20036;-78
2024/03/11 04:19:05;;;;;;;9.68;7.30;;;3.20;99.90;;;;;;5112224;28;20051;-82
2024/03/11 04:21:54;;;;;;;9.40;7.20;;;3.20;99.90;;;;;;5099420;28;20036;-82
2024/03/11 04:24:41;;;;;;;9.98;7.40;;;3.20;99.90;;;;;;5102179;27;20047;-80
2024/03/11 04:27:28;;;;;;;12.82;7.72;;;3.20;99.90;;;;;;5100926;28;20125;-79
2024/03/11 04:30:20;;;;;;;15.00;7.90;;;3.10;99.90;;;;;;5117935;28;20044;-81
2024/03/11 04:33:08;;;;;;;10.60;7.63;;;3.10;99.90;;;;;;5101196;28;20052;-81
2024/03/11 04:35:56;;;;;;;8.98;7.18;;;3.00;99.90;;;;;;5103336;28;20044;-81
2024/03/11 04:38:44;;;;;;;10.90;7.38;;;3.00;99.90;;;;;;5104710;28;20451;-79
2024/03/11 04:41:32;;;;;;;11.45;8.10;;;3.00;99.90;;;;;;5104178;28;20051;-79
2024/03/11 04:44:20;;;;;;;11.32;7.78;;;3.00;99.90;;;;;;5106491;28;20043;-78
2024/03/11 04:47:07;;;;;;;10.32;7.07;;;2.90;99.90;;;;;;5115839;28;20512;-77
2024/03/11 04:49:55;;;;;;;13.25;7.80;;;3.00;99.90;;;;;;5119758;28;20100;-78
2024/03/11 04:52:42;;;;;;;11.52;8.38;;;3.00;99.90;;;;;;5119922;28;20048;-82
2024/03/11 04:55:30;;;;;;;12.63;7.30;;;2.90;99.90;;;;;;5122145;27;20040;-78
2024/03/11 04:58:18;;;;;;;12.80;8.23;;;2.90;99.90;;;;;;5100261;28;20066;-80
2024/03/11 05:01:06;;;;;;;12.50;8.23;;;3.00;99.90;;;;;;5113947;28;20141;-78
2024/03/11 05:03:53;;;;;;;10.48;7.80;;;2.90;99.90;;;;;;5118991;28;20050;-79
2024/03/11 05:06:43;;;;;;;12.80;8.00;;;2.90;99.90;;;;;;5108522;28;20150;-80
2024/03/11 05:09:30;;;;;;;15.15;9.48;;;3.00;99.90;;;;;;5116754;28;20040;-76
2024/03/11 05:12:17;;;;;;;15.38;8.43;;;3.00;99.90;;;;;;5121486;28;20069;-76
2024/03/11 05:15:11;;;;;;;13.48;7.25;;;3.00;99.90;;;;;;5120975;28;20046;-80
2024/03/11 05:17:58;;;;;;;9.05;6.13;;;3.00;99.90;;;;;;5099583;28;20131;-78
2024/03/11 05:20:46;;;;;;;12.73;6.90;;;3.00;99.90;;;;;;5098512;28;20054;-80
2024/03/11 05:23:34;;;;;;;8.48;6.45;;;3.00;99.90;;;;;;5099538;28;20084;-78
2024/03/11 05:26:22;;;;;;;8.98;6.00;;;2.90;99.90;;;;;;5103349;28;20047;-78
2024/03/11 05:29:13;;;;;;;20.15;11.07;;;2.80;99.90;;;;;;5084174;28;20047;-80
2024/03/11 05:32:03;;;;;;;17.25;8.68;;;2.80;99.90;;;;;;5099496;28;20058;-79
2024/03/11 05:34:50;;;;;;;11.65;6.85;;;2.70;99.90;;;;;;5094390;28;20061;-80
2024/03/11 05:37:37;;;;;;;9.95;6.85;;;2.70;99.90;;;;;;5096287;28;20110;-82
2024/03/11 05:40:25;;;;;;;9.50;6.43;;;2.70;99.90;;;;;;5099635;28;20105;-80
2024/03/11 05:43:15;;;;;;;13.43;7.82;;;2.70;99.90;;;;;;5088287;28;20390;-79
2024/03/11 05:46:02;;;;;;;11.07;8.18;;;2.70;99.90;;;;;;5098101;28;20036;-80
2024/03/11 05:48:51;;;;;;;14.18;8.30;;;2.70;99.90;;;;;;5107185;28;20040;-80
2024/03/11 05:51:41;;;;;;;12.60;8.43;;;2.70;99.90;;;;;;5093620;28;20051;-80
2024/03/11 05:54:28;;;;;;;10.82;8.35;;;2.70;99.90;;;;;;5100706;28;20039;-82
2024/03/11 05:57:23;;;;;;;17.30;9.65;;;2.60;99.90;;;;;;5108823;28;20050;-82
2024/03/11 06:00:15;;;;;;;13.80;8.95;;;2.70;99.90;;;;;;5092001;28;20052;-78
2024/03/11 06:03:04;;;;;;;10.93;8.60;;;2.70;99.90;;;;;;5089299;28;20182;-80
2024/03/11 06:05:52;;;;;;;15.05;9.02;;;2.70;99.90;;;;;;5099954;28;20051;-78
2024/03/11 06:08:40;;;;;;;15.85;10.40;;;2.80;99.90;;;;;;5096831;28;20476;-78
2024/03/11 06:11:28;;;;;;;13.20;9.25;;;2.80;99.90;;;;;;5110980;27;20050;-80
2024/03/11 06:14:17;;;;;;;14.75;9.27;;;2.80;99.90;;;;;;5089098;28;20384;-79
2024/03/11 06:17:07;;;;;;;13.15;8.57;;;2.90;99.90;;;;;;5102904;27;20056;-77
2024/03/11 06:19:54;;;;;;;13.00;8.52;;;3.00;99.90;;;;;;5097995;28;20653;-81
2024/03/11 06:22:43;;;;;;;10.43;6.88;;;3.00;99.90;;;;;;5086658;28;20107;-80
2024/03/11 06:25:31;;;;;;;13.90;7.40;;;3.00;99.90;;;;;;5101600;28;20495;-79
2024/03/11 06:28:20;;;;;;;10.82;7.90;;;3.10;99.90;;;;;;5105103;27;20663;-79
2024/03/11 06:31:08;;;;;;;11.82;6.40;;;3.20;99.90;;;;;;5106135;28;20051;-77
2024/03/11 06:33:56;;;;;;;9.48;6.30;;;3.20;99.90;;;;;;5085990;27;20067;-79
2024/03/11 06:36:43;;;;;;;8.55;5.60;;;3.30;99.90;;;;;;5099150;27;20036;-77
2024/03/11 06:39:32;;;;;;;13.68;5.97;;;3.50;99.90;;;;;;5109364;27;20044;-79
2024/03/11 06:42:23;;;;;;;8.35;5.55;;;3.60;98.80;;;;;;5106824;27;20059;-80
2024/03/11 06:45:13;;;;;;;5.95;4.90;;;3.80;46.10;;;;;;5066695;27;20054;-77
2024/03/11 06:48:01;;;;;;;4.90;4.38;;;4.20;1.00;;;;;;5113667;27;20040;-81
2024/03/11 06:50:49;;;;;;;4.53;4.07;;;4.40;1.00;;;;;;5083699;28;20051;-81
2024/03/11 06:53:37;;;;;;;5.05;3.78;;;4.80;1.00;;;;;;5097957;27;20036;-78
2024/03/11 06:56:24;;;;;;;4.80;3.50;;;5.20;99.90;;;;;;5098814;27;20066;-82
2024/03/11 06:59:14;;;;;;;4.43;3.33;;;5.50;94.90;;;;;;5094018;27;20040;-81
2024/03/11 07:02:02;;;;;;;3.88;2.55;;;5.60;1.00;;;;;;5088838;28;20140;-80
2024/03/11 07:04:50;;;;;;;4.18;2.92;;;5.70;99.90;;;;;;5087822;27;20046;-79
2024/03/11 07:07:44;;;;;;;2.75;2.28;;;6.00;99.90;;;;;;5099738;27;20105;-79
2024/03/11 07:10:33;;;;;;;4.25;2.65;;;6.30;99.90;;;;;;5089905;28;20117;-80
2024/03/11 07:13:25;;;;;;;2.67;2.15;;;6.40;1.00;;;;;;5101002;27;20847;-79
2024/03/11 07:16:13;;;;;;;3.53;2.00;;;6.10;1.00;;;;;;5082220;27;20113;-79
2024/03/11 07:19:02;;;;;;;3.40;2.13;;;5.80;99.90;;;;;;5093749;27;20378;-79
2024/03/11 07:21:50;;;;;;;3.67;2.22;;;5.80;99.90;;;;;;5092420;28;20092;-79
2024/03/11 07:24:40;;;;;;;3.83;2.10;;;6.00;7.70;;;;;;5104069;27;20672;-81
2024/03/11 07:27:30;;;;;;;3.53;2.42;;;6.60;1.00;;;;;;5105512;27;20061;-80
2024/03/11 07:30:22;;;;;;;3.80;2.55;;;6.90;99.90;;;;;;5095782;27;20627;-80
2024/03/11 07:33:14;;;;;;;2.60;1.70;;;7.10;49.20;;;;;;5096839;28;20052;-79
2024/03/11 07:36:03;;;;;;;4.18;1.92;;;7.40;1.00;;;;;;5098042;28;20044;-80
2024/03/11 07:38:51;;;;;;;6.68;2.03;;;7.50;99.90;;;;;;5094154;27;20050;-80
2024/03/11 07:41:39;;;;;;;3.05;1.70;;;7.80;99.90;;;;;;5096206;27;20047;-78
2024/03/11 07:44:28;;;;;;;1.60;1.50;;;8.00;11.50;;;;;;5087023;28;20085;-81
2024/03/11 07:47:19;;;;;;;1.67;1.42;;;8.20;1.00;;;;;;5086699;28;20148;-80
2024/03/11 07:50:09;;;;;;;2.45;1.42;;;8.00;99.90;;;;;;5093989;28;20044;-83
2024/03/11 07:53:00;;;;;;;1.92;1.77;;;8.00;99.90;;;;;;5092079;28;20091;-82
2024/03/11 07:55:50;;;;;;;1.25;0.98;;;8.10;99.90;;;;;;5084752;27;20039;-80
2024/03/11 07:58:38;;;;;;;1.73;1.27;;;8.30;99.90;;;;;;5101908;27;20040;-82
2024/03/11 08:01:26;;;;;;;2.55;1.73;;;8.40;99.90;;;;;;5101414;27;20035;-81
2024/03/11 08:04:15;;;;;;;1.70;1.40;;;8.70;99.90;;;;;;5097546;27;20058;-81
2024/03/11 08:07:04;;;;;;;1.20;1.10;;;8.60;47.80;;;;;;5099306;27;20698;-82
2024/03/11 08:09:53;;;;;;;2.65;1.30;;;8.50;8.60;;;;;;5125821;27;20035;-79
2024/03/11 08:12:44;;;;;;;2.08;1.27;;;8.50;1.00;;;;;;5101546;27;20127;-79
2024/03/11 08:15:34;;;;;;;1.42;1.30;;;8.60;1.00;;;;;;5107938;27;20120;-81
2024/03/11 08:18:21;;;;;;;2.22;1.33;;;8.70;1.00;;;;;;5109128;27;20411;-80
2024/03/11 08:21:10;;;;;;;1.40;1.02;;;8.90;1.00;;;;;;5091606;27;20044;-77
2024/03/11 08:23:58;;;;;;;1.58;1.10;;;9.30;1.00;;;;;;5105729;27;20232;-82
2024/03/11 08:26:48;;;;;;;2.38;1.23;;;9.40;1.00;;;;;;5097988;27;20059;-81
2024/03/11 08:29:35;;;;;;;1.80;1.05;;;9.50;1.00;;;;;;5089696;27;20035;-80
2024/03/11 08:32:24;;;;;;;1.10;1.00;;;9.80;1.00;;;;;;5097469;28;20105;-80
2024/03/11 08:35:25;;;;;;;1.15;1.08;;;9.90;99.90;;;;;;5102320;27;20173;-80
2024/03/11 08:38:13;;;;;;;1.27;1.17;;;9.90;99.90;;;;;;5104593;28;20055;-83
2024/03/11 08:41:06;;;;;;;1.33;1.23;;;9.70;99.90;;;;;;5098876;27;20099;-82
2024/03/11 08:43:54;;;;;;;1.63;1.40;;;9.50;99.90;;;;;;5106418;27;20046;-82
2024/03/11 08:46:43;;;;;;;2.45;1.10;;;9.50;99.90;;;;;;5090980;28;20122;-81
2024/03/11 08:49:31;;;;;;;1.67;1.10;;;9.50;99.90;;;;;;5095836;28;20531;-79
2024/03/11 08:52:21;;;;;;;1.25;0.93;;;9.60;99.90;;;;;;5102105;27;20047;-80
2024/03/11 08:55:09;;;;;;;1.55;1.10;;;9.50;99.90;;;;;;5097046;28;20080;-82
2024/03/11 08:57:58;;;;;;;2.78;1.23;;;9.50;99.90;;;;;;5098105;28;20044;-78
2024/03/11 09:00:46;;;;;;;2.35;1.35;;;9.70;99.90;;;;;;5101386;27;20040;-80
2024/03/11 09:03:34;;;;;;;1.40;1.30;;;10.00;99.90;;;;;;5109848;28;20046;-81
2024/03/11 09:06:22;;;;;;;3.22;1.08;;;9.90;99.90;;;;;;5121909;28;20032;-81
2024/03/11 09:09:14;;;;;;;3.28;1.20;;;10.30;99.90;;;;;;5106852;28;20043;-80
2024/03/11 09:12:05;;;;;;;3.38;1.05;;;10.50;99.90;;;;;;5103395;28;20090;-79
2024/03/11 09:14:55;;;;;;;3.42;1.52;;;10.50;99.90;;;;;;5104356;28;20044;-82
2024/03/11 09:17:44;;;;;;;2.58;1.20;;;10.40;99.90;;;;;;5095466;28;20161;-82
2024/03/11 09:20:33;;;;;;;1.30;1.10;;;10.80;99.90;;;;;;5098636;28;20044;-80
2024/03/11 09:23:22;;;;;;;1.65;1.10;;;11.30;99.90;;;;;;5090239;28;20039;-83
2024/03/11 09:26:10;;;;;;;1.10;0.95;;;11.60;99.90;;;;;;5078337;28;20054;-80
2024/03/11 09:29:01;;;;;;;2.70;0.93;;;11.90;99.90;;;;;;5099119;28;20036;-81
2024/03/11 09:31:49;;;;;;;1.48;1.02;;;12.40;99.90;;;;;;5096525;28;20090;-81
2024/03/11 09:34:38;;;;;;;1.10;1.00;;;12.30;99.90;;;;;;5092555;28;20559;-82
2024/03/11 09:37:26;;;;;;;1.70;0.80;;;12.10;99.90;;;;;;5086389;28;20077;-80
2024/03/11 09:40:19;;;;;;;1.13;0.90;;;11.80;99.90;;;;;;5094719;28;20051;-77
2024/03/11 09:43:12;;;;;;;0.85;0.85;;;12.00;99.90;;;;;;5097728;28;20209;-80
2024/03/11 09:46:00;;;;;;;0.98;0.80;;;12.50;99.90;;;;;;5096962;27;20040;-83
2024/03/11 09:48:51;;;;;;;1.23;0.80;;;13.00;99.90;;;;;;5102362;27;20058;-81
2024/03/11 09:51:40;;;;;;;1.40;0.90;;;13.70;99.90;;;;;;5090630;27;20070;-78
2024/03/11 09:54:29;;;;;;;1.17;0.80;;;13.80;99.90;;;;;;5088740;28;20572;-81
2024/03/11 09:57:18;;;;;;;1.20;0.90;;;13.30;99.90;;;;;;5107876;27;20055;-77
2024/03/11 10:00:12;;;;;;;1.02;0.93;;;13.10;99.90;;;;;;5106311;27;20043;-81
2024/03/11 10:03:02;;;;;;;2.00;0.90;;;13.70;99.90;;;;;;5109719;27;20051;-82
2024/03/11 10:05:56;;;;;;;1.67;0.80;;;14.20;99.90;;;;;;5109283;27;20039;-79
2024/03/11 10:08:49;;;;;;;0.63;0.60;;;14.70;99.90;;;;;;5096068;27;20044;-78
2024/03/11 10:11:37;;;;;;;1.00;0.90;;;15.40;99.90;;;;;;5101943;27;20467;-81
2024/03/11 10:14:25;;;;;;;4.72;0.93;;;15.00;99.90;;;;;;5101005;27;20067;-79
2024/03/11 10:17:26;;;;;;;2.78;1.02;;;14.90;97.80;;;;;;5100195;27;20130;-82
2024/03/11 10:20:21;;;;;;;0.93;0.90;;;15.40;92.20;;;;;;5090749;28;20186;-82
2024/03/11 10:23:18;;;;;;;1.60;1.05;;;15.40;77.40;;;;;;5070072;27;20115;-81
2024/03/11 10:26:24;;;;;;;2.83;1.38;;;15.50;69.40;;;;;;5097065;27;20051;-81
2024/03/11 10:29:29;;;;;;;1.85;1.05;;;15.30;64.00;;;;;;5095625;27;20044;-82
2024/03/11 10:32:42;;;;;;;1.13;0.95;;;15.70;51.70;;;;;;5084588;28;20060;-81
2024/03/11 10:35:33;;;;;;;1.48;0.93;;;15.70;48.10;;;;;;5092417;28;20130;-79
2024/03/11 10:38:24;;;;;;;1.67;0.90;;;15.40;41.50;;;;;;5092045;27;20044;-80
2024/03/11 10:41:20;;;;;;;1.00;0.70;;;16.00;37.80;;;;;;5090553;27;20044;-79
2024/03/11 10:44:19;;;;;;;1.02;0.93;;;16.20;28.20;;;;;;5097655;28;20127;-80
2024/03/11 10:47:14;;;;;;;2.40;0.90;;;15.20;20.60;;;;;;5108223;27;20133;-80
2024/03/11 10:50:05;;;;;;;2.22;1.10;;;14.40;20.90;;;;;;5099755;27;20404;-80
2024/03/11 10:52:57;;;;;;;1.23;1.02;;;14.00;24.40;;;;;;5100667;27;20596;-80
2024/03/11 10:55:53;;;;;;;0.98;0.88;;;14.60;22.80;;;;;;5105979;27;20070;-79
2024/03/11 10:58:42;;;;;;;1.38;0.77;;;14.20;23.60;;;;;;5098854;28;20115;-81
2024/03/11 11:01:35;;;;;;;0.75;0.73;;;14.70;25.90;;;;;;5114189;28;20043;-78
2024/03/11 11:04:33;;;;;;;0.90;0.70;;;15.00;20.00;;;;;;5107146;27;20496;-80
2024/03/11 11:07:30;;;;;;;2.58;1.00;;;15.20;14.20;;;;;;5105147;27;20039;-80
2024/03/11 11:10:18;;;;;;;1.45;0.98;;;14.70;7.80;;;;;;5105115;27;20507;-80
2024/03/11 11:13:06;;;;;;;1.52;0.95;;;14.70;8.80;;;;;;5104184;27;20052;-81
2024/03/11 11:15:56;;;;;;;1.45;0.70;;;14.60;9.30;;;;;;5099052;27;20047;-77
2024/03/11 11:18:46;;;;;;;1.73;1.00;;;15.90;5.60;;;;;;5109370;27;20066;-79
2024/03/11 11:21:34;;;;;;;1.73;0.80;;;15.60;6.50;;;;;;5104752;27;20043;-82
2024/03/11 11:24:31;;;;;;;1.52;0.85;;;15.80;1.00;;;;;;5098235;27;20044;-81
2024/03/11 11:27:27;;;;;;;5.95;0.85;;;16.90;1.00;;;;;;5094555;28;20116;-80
2024/03/11 11:30:17;;;;;;;;;;;17.50;1.00;;;;;;5107508;27;20075;-82
2024/03/11 11:33:08;;;;;;;1.23;0.80;;;17.80;1.00;;;;;;5099656;28;19934;-81
2024/03/11 11:35:57;;;;;;;0.90;0.70;;;17.00;1.00;;;;;;5082379;28;20048;-79
2024/03/11 11:38:46;;;;;;;1.23;0.75;;;17.20;1.00;;;;;;5101361;27;20104;-80
2024/03/11 11:41:37;;;;;;;1.60;0.60;;;17.20;1.00;;;;;;5083159;28;20120;-79
2024/03/11 11:44:31;;;;;;;1.33;0.73;;;16.90;1.00;;;;;;5081618;28;20051;-77
2024/03/11 11:47:21;;;;;;;2.20;0.82;;;15.40;1.00;;;;;;5097222;27;20040;-80
2024/03/11 11:50:28;;;;;;;1.70;0.88;;;14.40;1.00;;;;;;5093438;28;20047;-82
2024/03/11 11:53:25;;;;;;;2.28;0.60;;;14.20;1.00;;;;;;5092015;27;20538;-81
2024/03/11 11:56:21;;;;;;;0.70;0.70;;;14.40;1.00;;;;;;5090302;28;20377;-81
2024/03/11 11:59:09;;;;;;;0.90;0.70;;;14.60;1.00;;;;;;5101032;27;20150;-80
2024/03/11 12:02:00;;;;;;;0.98;0.60;;;15.10;1.00;;;;;;5099234;28;20035;-77
2024/03/11 12:04:57;;;;;;;1.10;0.60;;;15.10;1.00;;;;;;5111102;27;20063;-78
2024/03/11 12:07:47;;;;;;;0.95;0.80;;;14.10;1.00;;;;;;5108419;28;20111;-78
2024/03/11 12:10:39;;;;;;;2.55;0.90;;;13.60;1.00;;;;;;5098714;28;20117;-80
2024/03/11 12:13:27;;;;;;;0.85;0.82;;;12.80;1.00;;;;;;5106533;28;20040;-76
2024/03/11 12:16:23;;;;;;;0.73;0.70;;;12.70;1.00;;;;;;5121423;27;20031;-80
2024/03/11 12:19:13;;;;;;;1.00;0.70;;;12.50;1.00;;;;;;5113780;27;20055;-77
2024/03/11 12:22:04;;;;;;;2.72;0.63;;;12.80;1.00;;;;;;5085032;28;20058;-80
2024/03/11 12:25:01;;;;;;;1.25;0.80;;;12.70;1.00;;;;;;5109534;27;20592;-80
2024/03/11 12:27:54;;;;;;;3.28;1.55;;;12.70;1.00;;;;;;5115015;27;20075;-80
2024/03/11 12:30:55;;;;;;;1.25;0.73;;;12.50;1.00;;;;;;5109779;27;20036;-79
2024/03/11 12:33:46;;;;;;;0.50;0.50;;;12.60;1.00;;;;;;5112018;27;20043;-79
2024/03/11 12:36:39;;;;;;;0.85;0.65;;;12.60;1.00;;;;;;5109900;27;20056;-80
2024/03/11 12:39:27;;;;;;;1.00;0.70;;;12.70;1.00;;;;;;5117411;27;20039;-77
2024/03/11 12:42:28;;;;;;;1.50;0.60;;;12.60;1.00;;;;;;5104804;28;20091;-78
2024/03/11 12:45:40;;;;;;;1.75;0.73;;;12.60;1.00;;;;;;5112705;27;20040;-82
2024/03/11 12:48:29;;;;;;;2.95;0.60;;;12.60;1.00;;;;;;5101599;28;20047;-81
2024/03/11 12:51:17;;;;;;;0.73;0.68;;;12.60;2.40;;;;;;5071447;28;20036;-82
2024/03/11 12:54:33;;;;;;;0.82;0.80;;;12.80;8.40;;;;;;5090627;28;20047;-82
2024/03/11 12:57:23;;;;;;;1.88;1.00;;;13.00;3.10;;;;;;5089282;28;20040;-79
2024/03/11 13:00:14;;;;;;;1.48;0.90;;;13.00;2.80;;;;;;5093637;28;20042;-80
2024/03/11 13:03:14;;;;;;;1.85;1.00;;;13.10;1.30;;;;;;5105620;28;20043;-80
2024/03/11 13:06:05;;;;;;;2.03;0.83;;;13.00;1.00;;;;;;5091404;28;20050;-80
2024/03/11 13:08:53;;;;;;;2.55;0.80;;;12.90;1.00;;;;;;5109847;28;20330;-81
2024/03/11 13:11:43;;;;;;;0.65;0.63;;;12.70;1.00;;;;;;5103492;28;20051;-81
2024/03/11 13:14:31;;;;;;;0.60;0.60;;;12.50;1.00;;;;;;5088306;28;20055;-81
2024/03/11 13:17:33;;;;;;;1.02;0.70;;;12.40;1.00;;;;;;5098781;28;20044;-80
2024/03/11 13:20:39;;;;;;;1.08;0.60;;;12.60;1.00;;;;;;5083530;27;20043;-78
2024/03/11 13:23:29;;;;;;;0.68;0.68;;;12.90;1.00;;;;;;5108300;27;20065;-81
2024/03/11 13:26:22;;;;;;;3.70;1.10;;;12.80;1.00;;;;;;5101488;27;20569;-81
2024/03/11 13:29:15;;;;;;;2.25;1.70;;;12.60;1.00;;;;;;5090349;27;20050;-81
2024/03/11 13:32:07;;;;;;;0.93;0.90;;;12.60;1.00;;;;;;5086910;28;20139;-81
2024/03/11 13:34:55;;;;;;;4.80;2.50;;;12.60;1.00;;;;;;5099012;27;20626;-82
2024/03/11 13:37:45;;;;;;;1.23;0.93;;;12.50;1.00;;;;;;5102179;27;20126;-83
2024/03/11 13:40:34;;;;;;;3.50;1.20;;;12.30;1.00;;;;;;5091537;28;20052;-78
2024/03/11 13:43:24;;;;;;;1.75;1.20;;;12.00;1.00;;;;;;5097406;28;20040;-81
2024/03/11 13:46:13;;;;;;;1.20;1.02;;;11.90;1.00;;;;;;5105856;27;20074;-81
2024/03/11 13:49:03;;;;;;;3.30;1.20;;;12.00;1.00;;;;;;5092258;28;21338;-82
2024/03/11 13:51:51;;;;;;;2.78;0.82;;;12.30;1.00;;;;;;5089765;28;20206;-79
2024/03/11 13:54:40;;;;;;;0.95;0.70;;;12.30;1.00;;;;;;5114134;27;20047;-77
2024/03/11 13:57:31;;;;;;;0.75;0.60;;;14.50;1.00;;;;;;5105504;27;20661;-81
2024/03/11 14:00:20;;;;;;;0.60;0.52;;;16.40;1.00;;;;;;5084946;27;20114;-78
2024/03/11 14:03:10;;;;;;;0.73;0.60;;;16.10;1.00;;;;;;5109496;27;20063;-79
2024/03/11 14:05:58;;;;;;;2.75;1.85;;;15.80;1.00;;;;;;5090847;27;20043;-78
2024/03/11 14:08:53;;;;;;;1.63;0.60;;;15.10;1.00;;;;;;5114182;27;20046;-81
2024/03/11 14:11:47;;;;;;;2.03;0.57;;;16.20;1.00;;;;;;5103425;27;20129;-80
2024/03/11 14:14:34;;;;;;;2.72;0.57;;;17.60;1.00;;;;;;5105881;27;20044;-80
2024/03/11 14:17:23;;;;;;;0.60;0.50;;;18.70;1.00;;;;;;5071858;28;20143;-80
2024/03/11 14:20:24;;;;;;;2.33;0.60;;;18.20;1.00;;;;;;5095708;27;20051;-79
2024/03/11 14:23:14;;;;;;;0.88;0.52;;;16.40;1.00;;;;;;5107147;27;20040;-79
2024/03/11 14:26:06;;;;;;;1.20;0.60;;;15.40;1.00;;;;;;5092741;27;20490;-80
2024/03/11 14:28:54;;;;;;;2.22;0.68;;;14.40;1.00;;;;;;5100310;27;20047;-79
2024/03/11 14:31:46;;;;;;;0.70;0.70;;;13.80;1.00;;;;;;5096255;28;20044;-78
2024/03/11 14:34:34;;;;;;;0.77;0.68;;;13.40;1.00;;;;;;5093469;27;20123;-80
2024/03/11 14:37:22;;;;;;;0.80;0.70;;;14.10;1.00;;;;;;5101486;27;20046;-77
2024/03/11 14:40:25;;;;;;;1.10;0.60;;;16.40;1.00;;;;;;5100726;27;20505;-80
2024/03/11 14:43:16;;;;;;;1.02;0.70;;;17.20;1.00;;;;;;5094075;27;20051;-80
2024/03/11 14:46:06;;;;;;;0.80;0.60;;;16.30;1.00;;;;;;5104021;27;20035;-78
2024/03/11 14:48:54;;;;;;;2.78;0.70;;;15.70;1.00;;;;;;5076283;27;20155;-80
2024/03/11 14:51:42;;;;;;;0.65;0.60;;;15.10;1.00;;;;;;5085816;28;20400;-81
2024/03/11 14:54:33;;;;;;;1.17;0.60;;;14.20;1.00;;;;;;5098864;27;20040;-81
2024/03/11 14:57:21;;;;;;;0.40;0.40;;;13.70;1.00;;;;;;5099418;27;20731;-76